Time;durP1;ratioP1;P1;durP2;ratioP2;P2;SDS_P1;SDS_P2;PMS_P1;PMS_P2;Temp;Humidity;BMP_temperature;BMP_pressure;BME280_temperature;BME280_humidity;BME280_pressure;Samples;Min_cycle;Max_cycle;Signal;HPM_P1;HPM_P2
2021/03/18 00:02:18;;;;;;;9.98;7.82;;;;;;;0.24;100.00;101662.41;5206618;28;20021;-79
2021/03/18 00:04:49;;;;;;;12.07;7.63;;;;;;;0.27;100.00;101665.06;5224611;28;20029;-80
2021/03/18 00:07:19;;;;;;;11.18;7.68;;;;;;;0.38;100.00;101657.59;5205613;28;20025;-80
2021/03/18 00:09:49;;;;;;;13.10;8.15;;;;;;;0.15;100.00;101658.75;5226169;28;20100;-79
2021/03/18 00:12:20;;;;;;;12.32;8.35;;;;;;;0.18;100.00;101659.72;5215849;28;20107;-79
2021/03/18 00:14:50;;;;;;;11.77;7.88;;;;;;;0.17;100.00;101652.84;5225342;28;20542;-79
2021/03/18 00:17:20;;;;;;;12.13;7.93;;;;;;;0.27;100.00;101654.78;5227048;28;20029;-80
2021/03/18 00:19:51;;;;;;;12.52;7.85;;;;;;;0.28;100.00;101650.50;5206001;28;20032;-79
2021/03/18 00:22:22;;;;;;;11.68;7.85;;;;;;;0.34;100.00;101656.66;5207566;28;20060;-79
2021/03/18 00:24:52;;;;;;;12.82;8.27;;;;;;;0.31;100.00;101658.28;5225786;28;20036;-80
2021/03/18 00:27:23;;;;;;;11.80;8.00;;;;;;;0.13;100.00;101656.19;5224479;28;20029;-79
2021/03/18 00:29:53;;;;;;;13.93;7.68;;;;;;;0.05;100.00;101657.69;5207498;28;20032;-79
2021/03/18 00:32:23;;;;;;;11.38;7.47;;;;;;;0.16;100.00;101648.53;5207655;28;20024;-79
2021/03/18 00:34:53;;;;;;;11.38;7.90;;;;;;;0.26;100.00;101649.59;5208080;28;20574;-79
2021/03/18 00:37:24;;;;;;;14.93;9.52;;;;;;;0.18;100.00;101639.16;5226121;28;20095;-80
2021/03/18 00:39:55;;;;;;;11.60;7.97;;;;;;;0.21;100.00;101646.91;5230846;28;20037;-79
2021/03/18 00:42:26;;;;;;;14.80;8.55;;;;;;;0.18;100.00;101644.28;5235947;28;20541;-80
2021/03/18 00:44:56;;;;;;;15.20;8.73;;;;;;;0.09;100.00;101645.78;5226055;28;20105;-80
2021/03/18 00:47:26;;;;;;;14.07;8.00;;;;;;;0.14;100.00;101642.50;5227015;28;20025;-79
2021/03/18 00:49:56;;;;;;;13.57;8.25;;;;;;;0.24;100.00;101644.41;5213855;28;20029;-80
2021/03/18 00:52:27;;;;;;;14.25;8.38;;;;;;;0.33;100.00;101639.50;5209634;28;20033;-80
2021/03/18 00:54:57;;;;;;;14.90;8.20;;;;;;;0.32;100.00;101635.19;5224160;28;20096;-80
2021/03/18 00:57:27;;;;;;;12.35;8.10;;;;;;;0.39;100.00;101638.78;5205148;28;20470;-80
2021/03/18 00:59:58;;;;;;;10.77;7.57;;;;;;;0.38;100.00;101637.88;5221544;28;20526;-80
2021/03/18 01:02:28;;;;;;;13.45;8.13;;;;;;;0.44;100.00;101632.91;5225117;28;20029;-80
2021/03/18 01:04:58;;;;;;;14.35;9.18;;;;;;;0.40;100.00;101636.22;5201786;28;20503;-80
2021/03/18 01:07:28;;;;;;;12.43;8.00;;;;;;;0.35;100.00;101635.25;5227912;28;20028;-80
2021/03/18 01:09:59;;;;;;;14.73;8.77;;;;;;;0.16;100.00;101639.94;5230097;28;20502;-80
2021/03/18 01:12:29;;;;;;;14.10;9.02;;;;;;;-0.08;100.00;101649.66;5215604;28;20112;-80
2021/03/18 01:14:59;;;;;;;13.18;9.18;;;;;;;-0.24;100.00;101646.69;5230088;28;20048;-80
2021/03/18 01:17:30;;;;;;;16.27;9.02;;;;;;;-0.26;100.00;101653.44;5207897;28;20017;-80
2021/03/18 01:20:02;;;;;;;14.05;9.02;;;;;;;-0.28;100.00;101650.88;5223025;28;20024;-79
2021/03/18 01:22:32;;;;;;;14.32;9.15;;;;;;;-0.26;100.00;101649.19;5222852;28;20036;-80
2021/03/18 01:25:03;;;;;;;13.23;9.25;;;;;;;-0.33;100.00;101651.56;5210378;28;20024;-80
2021/03/18 01:27:34;;;;;;;15.20;8.80;;;;;;;-0.28;100.00;101650.88;5201967;28;20448;-79
2021/03/18 01:30:12;;;;;;;18.45;9.02;;;;;;;-0.35;100.00;101650.69;5223103;28;20112;-81
2021/03/18 01:32:42;;;;;;;14.18;9.57;;;;;;;-0.34;100.00;101647.28;5207008;28;20021;-80
2021/03/18 01:35:19;;;;;;;13.80;9.18;;;;;;;-0.22;100.00;101642.44;5226034;28;20024;-81
2021/03/18 01:37:51;;;;;;;16.23;9.48;;;;;;;-0.21;100.00;101636.47;5225259;28;20025;-81
2021/03/18 01:40:26;;;;;;;17.08;9.15;;;;;;;-0.05;100.00;101638.59;5229536;28;20129;-80
2021/03/18 01:42:57;;;;;;;;;;;;;;;-0.10;100.00;101635.03;5227179;28;20135;-79
2021/03/18 01:45:27;;;;;;;13.73;9.20;;;;;;;-0.09;100.00;101637.63;5222327;28;20003;-80
2021/03/18 01:47:58;;;;;;;16.67;9.90;;;;;;;-0.30;100.00;101638.81;5210448;28;20044;-79
2021/03/18 01:50:30;;;;;;;15.13;8.98;;;;;;;-0.27;100.00;101632.06;5224969;28;20131;-80
2021/03/18 01:53:02;;;;;;;14.48;9.05;;;;;;;-0.29;100.00;101633.72;5222870;28;20525;-79
2021/03/18 01:55:38;;;;;;;14.95;10.15;;;;;;;-0.23;100.00;101618.47;5198412;28;20467;-80
2021/03/18 01:58:11;;;;;;;16.33;10.05;;;;;;;-0.28;100.00;101634.56;5222742;28;20037;-79
2021/03/18 02:00:44;;;;;;;16.45;9.73;;;;;;;-0.32;100.00;101632.78;5224706;28;20025;-80
2021/03/18 02:03:15;;;;;;;16.63;10.32;;;;;;;-0.31;100.00;101631.94;5227625;28;20029;-80
2021/03/18 02:05:47;;;;;;;15.60;9.45;;;;;;;-0.25;100.00;101634.69;5227499;28;20489;-80
2021/03/18 02:08:18;;;;;;;14.48;8.93;;;;;;;-0.33;100.00;101633.59;5228284;28;20422;-80
2021/03/18 02:10:48;;;;;;;16.50;9.55;;;;;;;-0.34;100.00;101639.56;5213206;28;20025;-80
2021/03/18 02:13:19;;;;;;;15.65;9.80;;;;;;;-0.36;100.00;101636.09;5237804;28;20028;-80
2021/03/18 02:15:56;;;;;;;16.30;9.30;;;;;;;-0.53;100.00;101643.34;5208824;28;20112;-80
2021/03/18 02:18:48;;;;;;;13.40;9.05;;;;;;;-0.52;100.00;101629.69;5228317;28;20079;-80
2021/03/18 02:21:36;;;;;;;14.70;9.30;;;;;;;-0.48;100.00;101625.50;5230361;22;20037;-77
2021/03/18 02:24:31;;;;;;;13.32;9.35;;;;;;;-0.34;100.00;101634.44;5205917;28;20029;-77
2021/03/18 02:27:33;;;;;;;15.85;9.68;;;;;;;-0.36;100.00;101625.81;5203898;28;20104;-78
2021/03/18 02:30:46;;;;;;;17.23;11.10;;;;;;;-0.49;100.00;101624.66;5203773;28;20037;-78
2021/03/18 02:33:16;;;;;;;15.35;10.52;;;;;;;-0.41;100.00;101627.44;5181063;28;20052;-77
2021/03/18 02:36:20;;;;;;;16.60;10.50;;;;;;;-0.44;100.00;101622.19;5184186;28;20018;-78
2021/03/18 02:38:57;;;;;;;19.63;11.73;;;;;;;-0.46;100.00;101623.84;5169063;28;20056;-78
2021/03/18 02:41:36;;;;;;;21.60;12.55;;;;;;;-0.56;100.00;101611.63;5191156;28;20068;-77
2021/03/18 02:44:17;;;;;;;18.95;11.98;;;;;;;-0.48;100.00;101612.69;5193515;28;20109;-77
2021/03/18 02:46:53;;;;;;;20.02;12.45;;;;;;;-0.56;100.00;101621.91;5183695;28;20018;-77
2021/03/18 02:49:25;;;;;;;20.55;12.40;;;;;;;-0.46;100.00;101618.72;5183837;28;20033;-78
2021/03/18 02:51:57;;;;;;;18.38;11.30;;;;;;;-0.42;100.00;101616.28;5181430;28;20383;-77
2021/03/18 02:54:28;;;;;;;20.73;11.82;;;;;;;-0.45;100.00;101603.38;5164717;28;20029;-78
2021/03/18 02:57:01;;;;;;;20.25;11.57;;;;;;;-0.45;100.00;101605.03;5182918;28;20029;-78
2021/03/18 02:59:36;;;;;;;17.42;11.40;;;;;;;-0.55;100.00;101605.66;5182881;28;20168;-77
2021/03/18 03:02:13;;;;;;;17.80;11.93;;;;;;;-0.48;100.00;101603.28;5183039;28;20076;-78
2021/03/18 03:04:45;;;;;;;17.15;11.65;;;;;;;-0.51;100.00;101602.34;5182493;28;20041;-77
2021/03/18 03:07:18;;;;;;;17.08;11.27;;;;;;;-0.44;100.00;101601.66;5182006;28;20033;-78
2021/03/18 03:09:50;;;;;;;17.48;10.93;;;;;;;-0.43;100.00;101587.97;5185677;28;20032;-77
2021/03/18 03:12:25;;;;;;;16.83;10.52;;;;;;;-0.52;100.00;101585.22;5187729;28;20033;-78
2021/03/18 03:14:56;;;;;;;16.13;10.65;;;;;;;-0.63;100.00;101589.19;5181492;28;20033;-77
2021/03/18 03:17:28;;;;;;;19.30;11.13;;;;;;;-0.58;100.00;101588.47;5182337;28;20100;-78
2021/03/18 03:19:59;;;;;;;18.23;10.98;;;;;;;-0.55;100.00;101591.13;5180952;28;20495;-78
2021/03/18 03:22:36;;;;;;;15.75;10.27;;;;;;;-0.53;100.00;101591.16;5181892;28;20446;-78
2021/03/18 03:25:10;;;;;;;15.23;10.13;;;;;;;-0.38;100.00;101587.28;5174510;28;20017;-78
2021/03/18 03:27:45;;;;;;;15.45;10.52;;;;;;;-0.57;100.00;101590.22;5181275;28;20022;-77
2021/03/18 03:30:16;;;;;;;;;;;;;;;-0.66;100.00;101589.13;5182307;28;20500;-77
2021/03/18 03:32:46;;;;;;;18.33;10.48;;;;;;;-0.71;100.00;101586.44;5181711;28;19952;-77
2021/03/18 03:35:17;;;;;;;19.92;10.93;;;;;;;-0.69;100.00;101584.75;5182133;28;20113;-78
2021/03/18 03:37:48;;;;;;;17.73;11.50;;;;;;;-0.82;100.00;101581.84;5182163;28;20041;-78
2021/03/18 03:40:19;;;;;;;15.18;10.25;;;;;;;-0.72;100.00;101579.56;5188607;28;20061;-77
2021/03/18 03:42:49;;;;;;;23.38;13.07;;;;;;;-0.76;100.00;101576.91;5184367;28;20036;-77
2021/03/18 03:45:19;;;;;;;20.63;13.13;;;;;;;-0.72;100.00;101578.72;5181442;28;20025;-77
2021/03/18 03:47:49;;;;;;;21.73;13.75;;;;;;;-0.63;100.00;101578.94;5181497;28;20041;-78
2021/03/18 03:50:24;;;;;;;20.95;13.30;;;;;;;-0.70;100.00;101579.63;5180746;28;20080;-77
2021/03/18 03:53:39;;;;;;;20.40;13.30;;;;;;;-0.54;100.00;101584.31;5181641;28;20183;-77
2021/03/18 03:56:18;;;;;;;22.67;13.50;;;;;;;-0.65;100.00;101584.03;5094472;29;20043;-78
2021/03/18 03:58:59;;;;;;;21.52;13.82;;;;;;;-0.55;100.00;101575.72;5176705;28;20041;-78
2021/03/18 04:01:35;;;;;;;23.35;14.15;;;;;;;-0.61;100.00;101573.00;5180176;28;20026;-77
2021/03/18 04:04:28;;;;;;;20.67;13.52;;;;;;;-0.58;100.00;101582.50;5172848;28;20052;-77
2021/03/18 04:07:01;;;;;;;24.00;14.73;;;;;;;-0.70;100.00;101577.03;5164268;28;20053;-77
2021/03/18 04:09:33;;;;;;;21.67;13.85;;;;;;;-0.79;100.00;101572.56;5183586;28;20038;-77
2021/03/18 04:12:05;;;;;;;20.38;14.40;;;;;;;-0.78;100.00;101573.41;5178134;28;20429;-78
2021/03/18 04:14:39;;;;;;;22.40;13.80;;;;;;;-0.84;100.00;101575.81;5180784;28;20025;-77
2021/03/18 04:17:11;;;;;;;19.25;12.85;;;;;;;-0.83;100.00;101570.75;5181545;28;20034;-77
2021/03/18 04:19:46;;;;;;;20.90;13.43;;;;;;;-0.92;100.00;101570.50;5180263;28;20113;-77
2021/03/18 04:22:18;;;;;;;19.83;13.00;;;;;;;-0.88;100.00;101569.72;5180437;28;20029;-78
2021/03/18 04:24:51;;;;;;;19.27;12.30;;;;;;;-0.78;100.00;101575.97;5181050;28;20105;-77
2021/03/18 04:27:22;;;;;;;19.88;12.77;;;;;;;-0.82;100.00;101571.59;5182180;28;20103;-77
2021/03/18 04:29:54;;;;;;;21.30;13.00;;;;;;;-0.73;100.00;101565.00;5182271;28;20510;-77
2021/03/18 04:32:26;;;;;;;22.73;13.30;;;;;;;-0.88;100.00;101550.94;5180853;28;20145;-78
2021/03/18 04:34:57;;;;;;;17.67;12.77;;;;;;;-0.93;100.00;101558.50;5181146;28;20592;-78
2021/03/18 04:37:27;;;;;;;18.88;13.27;;;;;;;-0.97;100.00;101554.13;5179631;28;20030;-77
2021/03/18 04:39:58;;;;;;;20.30;13.38;;;;;;;-1.07;100.00;101553.84;5188573;28;20073;-78
2021/03/18 04:42:29;;;;;;;21.10;13.38;;;;;;;-1.07;100.00;101551.28;5190377;28;20021;-78
2021/03/18 04:45:00;;;;;;;26.88;14.52;;;;;;;-0.95;100.00;101543.88;5185049;28;20026;-78
2021/03/18 04:47:33;;;;;;;20.05;13.98;;;;;;;-0.86;100.00;101544.13;5185865;28;20112;-77
2021/03/18 04:50:05;;;;;;;23.60;14.50;;;;;;;-0.96;100.00;101548.16;5191260;28;20681;-77
2021/03/18 04:52:35;;;;;;;23.90;13.65;;;;;;;-0.92;100.00;101547.41;5184705;28;20029;-77
2021/03/18 04:55:08;;;;;;;20.58;12.80;;;;;;;-1.07;100.00;101546.16;5187036;28;20033;-77
2021/03/18 04:57:49;;;;;;;20.08;13.07;;;;;;;-1.31;100.00;101554.06;5191959;28;20486;-77
2021/03/18 05:00:21;;;;;;;22.73;13.57;;;;;;;-1.29;100.00;101551.50;5184365;28;20045;-77
2021/03/18 05:02:51;;;;;;;20.63;12.85;;;;;;;-1.11;100.00;101546.88;5182176;28;20454;-77
2021/03/18 05:05:22;;;;;;;21.60;13.23;;;;;;;-1.03;100.00;101556.50;5183745;28;20034;-77
2021/03/18 05:07:53;;;;;;;20.50;12.48;;;;;;;-1.02;100.00;101557.38;5183131;28;20121;-77
2021/03/18 05:10:27;;;;;;;19.15;12.25;;;;;;;-0.95;100.00;101554.13;5191663;28;20034;-78
2021/03/18 05:13:02;;;;;;;20.38;12.98;;;;;;;-1.18;100.00;101551.00;5189781;28;20033;-77
2021/03/18 05:15:34;;;;;;;19.77;12.38;;;;;;;-0.94;100.00;101550.75;5184425;28;20034;-77
2021/03/18 05:18:09;;;;;;;18.92;12.38;;;;;;;-0.89;100.00;101546.63;5183729;28;20029;-77
2021/03/18 05:20:43;;;;;;;21.27;12.75;;;;;;;-0.96;100.00;101547.28;5183683;28;20022;-77
2021/03/18 05:23:15;;;;;;;19.98;13.13;;;;;;;-1.08;100.00;101541.84;5183905;28;20026;-77
2021/03/18 05:25:47;;;;;;;21.42;13.82;;;;;;;-1.18;100.00;101542.41;5184455;28;20033;-77
2021/03/18 05:28:17;;;;;;;21.52;14.77;;;;;;;-1.06;100.00;101543.59;5184039;28;20034;-77
2021/03/18 05:30:48;;;;;;;23.98;15.23;;;;;;;-1.01;100.00;101543.72;5183989;28;20472;-78
2021/03/18 05:33:19;;;;;;;24.65;15.20;;;;;;;-1.04;100.00;101546.22;5184124;28;20034;-78
2021/03/18 05:35:50;;;;;;;27.05;16.17;;;;;;;-1.03;100.00;101546.25;5183889;28;20534;-77
2021/03/18 05:38:20;;;;;;;26.80;16.05;;;;;;;-1.05;100.00;101544.50;5184532;28;20025;-77
2021/03/18 05:40:55;;;;;;;31.50;17.92;;;;;;;-0.88;100.00;101549.22;5187102;28;20029;-77
2021/03/18 05:43:26;;;;;;;27.95;18.05;;;;;;;-1.01;100.00;101547.19;5184981;28;20698;-78
2021/03/18 05:45:56;;;;;;;26.83;16.55;;;;;;;-0.68;100.00;101544.59;5184192;28;20037;-77
2021/03/18 05:48:28;;;;;;;30.02;16.98;;;;;;;-0.81;100.00;101540.84;5183892;28;20407;-77
2021/03/18 05:50:58;;;;;;;28.33;17.52;;;;;;;-0.74;100.00;101537.59;5186619;28;20107;-78
2021/03/18 05:53:29;;;;;;;30.35;17.30;;;;;;;-0.52;100.00;101539.00;5183118;28;20034;-77
2021/03/18 05:56:00;;;;;;;25.73;16.02;;;;;;;-0.64;100.00;101536.13;5183732;28;20088;-78
2021/03/18 05:58:32;;;;;;;28.27;17.38;;;;;;;-0.65;100.00;101548.13;5183445;28;20029;-78
2021/03/18 06:01:02;;;;;;;29.52;16.58;;;;;;;-0.62;100.00;101544.72;5183145;28;20115;-78
2021/03/18 06:03:34;;;;;;;26.13;16.88;;;;;;;-0.54;100.00;101541.53;5183093;28;20109;-77
2021/03/18 06:06:06;;;;;;;26.58;17.60;;;;;;;-0.55;100.00;101541.50;5182983;28;20510;-78
2021/03/18 06:08:41;;;;;;;30.90;18.88;;;;;;;-0.37;100.00;101532.53;5181644;28;20033;-77
2021/03/18 06:11:11;;;;;;;26.85;18.00;;;;;;;-0.38;100.00;101538.47;5190329;28;20029;-77
2021/03/18 06:13:41;;;;;;;32.67;18.58;;;;;;;-0.22;100.00;101543.16;5189157;28;20447;-78
2021/03/18 06:16:12;;;;;;;27.23;17.77;;;;;;;-0.14;100.00;101535.63;5183388;28;20021;-78
2021/03/18 06:18:43;;;;;;;30.15;17.92;;;;;;;-0.25;100.00;101535.38;5183311;28;20467;-78
2021/03/18 06:21:13;;;;;;;29.38;17.95;;;;;;;-0.27;100.00;101538.72;5182253;28;20491;-78
2021/03/18 06:24:01;;;;;;;31.55;18.67;;;;;;;-0.27;100.00;101538.72;5182481;28;20064;-78
2021/03/18 06:26:34;;;;;;;30.42;20.00;;;;;;;-0.08;100.00;101541.75;5183103;28;20083;-78
2021/03/18 06:29:24;;;;;;;31.80;19.90;;;;;;;-0.08;100.00;101546.06;5182914;28;20021;-78
2021/03/18 06:31:56;;;;;;;30.75;20.48;;;;;;;0.17;100.00;101538.88;5182598;28;20038;-78
2021/03/18 06:34:44;;;;;;;36.50;20.80;;;;;;;0.41;100.00;101535.13;5182828;28;20029;-78
2021/03/18 06:37:36;;;;;;;31.90;20.10;;;;;;;0.38;100.00;101535.06;5180254;28;20037;-78
2021/03/18 06:40:17;;;;;;;35.17;20.83;;;;;;;0.32;100.00;101539.22;5187655;28;20045;-78
2021/03/18 06:42:59;;;;;;;32.08;20.33;;;;;;;0.35;100.00;101536.72;5187196;28;20109;-78
2021/03/18 06:45:35;;;;;;;33.22;21.75;;;;;;;0.20;100.00;101534.69;5179823;28;20060;-78
2021/03/18 06:48:11;;;;;;;37.67;23.65;;;;;;;0.21;100.00;101541.56;5178352;28;20096;-78
2021/03/18 06:50:45;;;;;;;35.15;22.92;;;;;;;0.42;100.00;101531.72;5179547;28;20058;-78
2021/03/18 06:53:24;;;;;;;41.58;25.08;;;;;;;0.68;100.00;101527.97;5181731;28;20037;-78
2021/03/18 06:55:55;;;;;;;37.67;23.33;;;;;;;0.86;100.00;101528.31;5181055;28;20561;-78
2021/03/18 06:58:27;;;;;;;37.38;24.95;;;;;;;1.18;100.00;101526.28;5181362;28;20029;-78
2021/03/18 07:01:04;;;;;;;34.75;23.10;;;;;;;0.98;100.00;101520.81;5181944;28;20892;-78
2021/03/18 07:03:39;;;;;;;38.30;25.85;;;;;;;1.00;100.00;101521.72;5180673;28;20084;-78
2021/03/18 07:06:25;;;;;;;40.95;25.88;;;;;;;1.17;100.00;101514.28;5179295;28;20026;-78
2021/03/18 07:09:13;;;;;;;39.70;25.98;;;;;;;1.43;100.00;101511.28;5179677;28;20545;-78
2021/03/18 07:11:44;;;;;;;34.88;22.52;;;;;;;1.35;100.00;101510.31;5184003;28;20037;-78
2021/03/18 07:14:15;;;;;;;34.08;23.05;;;;;;;1.80;100.00;101503.28;5165394;28;20439;-78
2021/03/18 07:16:48;;;;;;;37.72;24.38;;;;;;;2.29;100.00;101495.34;5182100;28;20037;-78
2021/03/18 07:19:26;;;;;;;33.55;21.88;;;;;;;2.27;100.00;101504.78;5181078;28;20034;-78
2021/03/18 07:21:58;;;;;;;32.25;22.67;;;;;;;2.80;100.00;101501.09;5181210;28;20046;-78
2021/03/18 07:24:38;;;;;;;32.72;21.27;;;;;;;2.65;100.00;101493.22;5181868;28;20093;-78
2021/03/18 07:27:11;;;;;;;33.83;22.20;;;;;;;1.99;100.00;101500.97;5177378;28;20080;-78
2021/03/18 07:29:46;;;;;;;31.42;21.90;;;;;;;2.67;100.00;101500.09;5182042;28;20034;-78
2021/03/18 07:32:17;;;;;;;30.27;20.60;;;;;;;4.11;95.02;101489.22;5181540;28;20026;-78
2021/03/18 07:34:47;;;;;;;30.52;20.25;;;;;;;4.44;91.90;101484.19;5181903;28;20036;-78
2021/03/18 07:37:17;;;;;;;26.85;17.77;;;;;;;4.59;91.00;101476.47;5181767;28;20037;-78
2021/03/18 07:39:48;;;;;;;26.77;18.88;;;;;;;4.53;89.57;101479.06;5187492;28;20104;-78
2021/03/18 07:42:18;;;;;;;25.13;18.33;;;;;;;4.46;89.60;101481.63;5186700;28;20025;-78
2021/03/18 07:44:50;;;;;;;27.13;19.15;;;;;;;4.96;91.75;101477.44;5164359;28;20025;-78
2021/03/18 07:47:21;;;;;;;25.10;18.17;;;;;;;4.88;88.03;101473.94;5177563;28;20056;-78
2021/03/18 07:49:53;;;;;;;29.45;20.23;;;;;;;4.93;91.44;101480.88;5180343;28;20033;-78
2021/03/18 07:52:26;;;;;;;29.40;20.25;;;;;;;4.81;90.56;101486.00;5179537;28;20028;-78
2021/03/18 07:54:59;;;;;;;30.52;20.95;;;;;;;4.63;91.66;101475.63;5181131;28;20106;-78
2021/03/18 07:57:40;;;;;;;32.00;21.00;;;;;;;4.92;91.73;101481.72;5176955;28;20560;-78
2021/03/18 08:00:13;;;;;;;29.75;21.48;;;;;;;4.96;91.19;101477.44;5180672;28;20021;-78
2021/03/18 08:02:43;;;;;;;29.45;21.85;;;;;;;5.22;92.64;101476.59;5184045;28;20026;-77
2021/03/18 08:05:40;;;;;;;28.60;20.92;;;;;;;4.58;93.52;101474.75;5184953;28;20388;-76
2021/03/18 08:08:30;;;;;;;29.70;21.70;;;;;;;5.32;92.87;101482.63;5179407;28;20030;-77
2021/03/18 08:11:20;;;;;;;32.05;22.42;;;;;;;5.04;93.45;101479.16;5184477;28;20096;-77
2021/03/18 08:13:50;;;;;;;32.25;22.80;;;;;;;6.21;90.01;101474.72;5179035;28;20121;-76
2021/03/18 08:16:26;;;;;;;32.70;23.20;;;;;;;6.67;87.68;101468.44;5181268;28;20138;-76
2021/03/18 08:18:57;;;;;;;30.17;22.90;;;;;;;6.40;87.22;101476.38;5180278;28;20056;-77
2021/03/18 08:21:42;;;;;;;30.30;21.92;;;;;;;7.34;85.60;101470.56;5222736;22;20496;-90
2021/03/18 08:24:14;;;;;;;29.25;21.73;;;;;;;8.71;80.85;101459.50;5241482;28;20500;-90
2021/03/18 08:26:50;;;;;;;26.55;19.98;;;;;;;9.30;75.48;101460.31;5245418;28;20443;-90
2021/03/18 08:29:43;;;;;;;30.63;20.75;;;;;;;10.16;75.24;101459.66;5227875;28;20020;-90
2021/03/18 08:32:27;;;;;;;27.15;20.08;;;;;;;10.15;70.93;101459.69;5225978;28;20493;-90
2021/03/18 08:34:59;;;;;;;25.65;19.85;;;;;;;10.48;72.39;101459.00;5228180;28;20028;-90
2021/03/18 08:37:38;;;;;;;26.58;20.00;;;;;;;8.91;76.91;101464.44;5227570;28;20020;-91
2021/03/18 08:40:19;;;;;;;26.02;18.85;;;;;;;8.33;75.88;101466.97;5226354;28;20424;-91
2021/03/18 08:42:50;;;;;;;27.75;19.20;;;;;;;8.23;78.96;101467.09;5224815;28;20033;-91
2021/03/18 08:45:21;;;;;;;26.65;20.20;;;;;;;9.23;73.18;101463.06;5244537;28;20048;-91
2021/03/18 08:47:55;;;;;;;25.63;18.87;;;;;;;10.61;71.22;101455.22;5227584;28;20736;-91
2021/03/18 08:50:25;;;;;;;24.13;18.05;;;;;;;11.62;68.52;101447.53;5229745;28;20354;-92
2021/03/18 08:52:57;;;;;;;22.48;16.85;;;;;;;12.40;65.33;101455.84;5227534;28;20123;-92
2021/03/18 08:55:42;;;;;;;26.20;16.88;;;;;;;12.73;62.58;101449.63;5227601;28;20048;-91
2021/03/18 08:58:16;;;;;;;23.95;18.00;;;;;;;11.44;67.46;101457.63;5224915;28;20029;-91
2021/03/18 09:00:46;;;;;;;26.33;19.50;;;;;;;10.33;70.76;101459.31;5221262;28;20384;-90
2021/03/18 09:03:19;;;;;;;25.30;19.00;;;;;;;9.35;70.91;101450.66;5227729;28;20024;-91
2021/03/18 09:05:58;;;;;;;30.27;21.15;;;;;;;7.49;80.60;101465.22;5245239;28;20021;-90
2021/03/18 09:08:35;;;;;;;32.67;22.60;;;;;;;7.07;83.96;101469.06;5226888;28;20021;-90
2021/03/18 09:11:05;;;;;;;33.40;23.92;;;;;;;6.70;84.32;101478.81;5226948;28;20509;-89
2021/03/18 09:13:36;;;;;;;32.22;22.95;;;;;;;5.96;88.83;101475.69;5227270;28;20186;-90
2021/03/18 09:16:06;;;;;;;36.72;23.10;;;;;;;5.67;88.04;101466.16;5244862;28;20063;-89
2021/03/18 09:18:37;;;;;;;36.15;23.17;;;;;;;5.10;91.64;101467.91;5238712;28;20951;-90
2021/03/18 09:21:10;;;;;;;37.35;24.15;;;;;;;4.91;92.54;101473.94;5243641;28;20424;-89
2021/03/18 09:23:45;;;;;;;35.58;23.52;;;;;;;4.80;94.31;101476.50;5227524;28;20020;-89
2021/03/18 09:26:16;;;;;;;37.20;24.63;;;;;;;4.78;94.58;101478.25;5229233;28;20640;-90
2021/03/18 09:28:50;;;;;;;38.42;24.65;;;;;;;4.35;95.54;101471.22;5247594;28;20040;-90
2021/03/18 09:31:24;;;;;;;42.00;26.45;;;;;;;4.75;95.36;101473.06;5229770;28;20024;-90
2021/03/18 09:33:55;;;;;;;42.42;27.00;;;;;;;5.29;94.04;101465.34;5247604;28;21774;-91
2021/03/18 09:36:27;;;;;;;31.83;21.52;;;;;;;5.35;91.28;101457.56;5229464;28;20047;-90
2021/03/18 09:39:11;;;;;;;31.38;22.55;;;;;;;5.57;91.47;101459.28;5247428;28;20032;-87
2021/03/18 09:41:44;;;;;;;34.60;21.23;;;;;;;5.14;91.83;101465.34;5247279;28;20025;-91
2021/03/18 09:44:18;;;;;;;38.88;24.17;;;;;;;4.78;93.10;101472.22;5248937;28;20029;-90
2021/03/18 09:46:51;;;;;;;35.28;22.77;;;;;;;4.39;94.84;101470.38;5229977;28;20620;-90
2021/03/18 09:49:42;;;;;;;41.53;26.23;;;;;;;4.16;95.74;101473.72;5230413;28;20024;-90
2021/03/18 09:52:22;;;;;;;41.67;27.00;;;;;;;3.89;97.79;101477.03;5227606;28;20039;-89
2021/03/18 09:54:53;;;;;;;70.28;35.47;;;;;;;4.42;97.04;101477.25;5239913;28;20609;-89
2021/03/18 09:57:28;;;;;;;43.38;26.95;;;;;;;4.47;95.76;101476.41;5224375;28;20024;-89
2021/03/18 10:00:01;;;;;;;;;;;;;;;4.57;95.16;101469.56;5242481;28;20025;-90
2021/03/18 10:02:32;;;;;;;53.97;30.25;;;;;;;4.61;95.39;101469.56;5230511;28;19953;-90
2021/03/18 10:05:06;;;;;;;56.85;32.35;;;;;;;4.93;95.31;101462.72;5231610;28;20028;-90
2021/03/18 10:07:36;;;;;;;78.15;41.83;;;;;;;5.08;93.68;101467.06;5231593;28;20036;-91
2021/03/18 10:10:10;;;;;;;37.83;24.45;;;;;;;5.11;93.13;101462.75;5243588;28;20028;-90
2021/03/18 10:12:40;;;;;;;65.10;34.45;;;;;;;5.02;94.03;101470.53;5230114;28;20702;-89
2021/03/18 10:15:13;;;;;;;53.95;30.88;;;;;;;4.65;94.48;101468.72;5248454;28;20035;-91
2021/03/18 10:17:44;;;;;;;38.63;25.05;;;;;;;4.98;92.63;101461.00;5230536;28;20024;-90
2021/03/18 10:20:19;;;;;;;55.00;32.47;;;;;;;4.41;93.32;101466.06;5229146;28;20036;-89
2021/03/18 10:23:01;;;;;;;48.83;29.50;;;;;;;4.55;94.30;101464.38;5229540;28;20047;-88
2021/03/18 10:25:34;;;;;;;46.45;28.17;;;;;;;4.83;94.61;101454.97;5230631;28;20035;-90
2021/03/18 10:28:10;;;;;;;36.03;21.95;;;;;;;4.83;94.35;101450.63;5209248;28;20025;-91
2021/03/18 10:30:47;;;;;;;50.97;28.60;;;;;;;4.83;94.11;101448.03;5222213;28;20021;-90
2021/03/18 10:33:26;;;;;;;55.42;31.67;;;;;;;4.60;94.05;101441.13;5228956;28;20473;-91
2021/03/18 10:35:58;;;;;;;49.83;29.23;;;;;;;4.86;93.43;101445.47;5246346;28;20393;-91
2021/03/18 10:38:30;;;;;;;38.90;25.92;;;;;;;4.81;93.62;101436.81;5226255;28;20025;-90
2021/03/18 10:41:06;;;;;;;41.65;26.70;;;;;;;5.07;93.31;101442.91;5245890;28;20016;-91
2021/03/18 10:43:39;;;;;;;36.28;23.75;;;;;;;4.75;93.25;101428.16;5241571;28;20025;-90
2021/03/18 10:46:12;;;;;;;34.83;22.77;;;;;;;4.76;94.24;101433.38;5227762;28;20081;-89
2021/03/18 10:48:49;;;;;;;34.75;23.48;;;;;;;4.74;94.41;101435.09;5247325;28;20032;-89
2021/03/18 10:51:22;;;;;;;33.97;22.70;;;;;;;4.62;95.31;101434.22;5229265;28;20048;-89
2021/03/18 10:53:53;;;;;;;36.90;22.75;;;;;;;4.43;96.67;101438.47;5229660;28;20052;-90
2021/03/18 10:56:26;;;;;;;33.53;21.52;;;;;;;4.53;96.81;101440.22;5230914;28;20052;-90
2021/03/18 10:58:57;;;;;;;31.33;20.00;;;;;;;4.44;97.16;101434.16;5227228;28;20032;-89
2021/03/18 11:01:29;;;;;;;36.53;23.23;;;;;;;4.23;96.25;101434.97;5251517;28;20485;-89
2021/03/18 11:04:07;;;;;;;38.58;24.35;;;;;;;4.55;97.89;101430.75;5233905;28;20500;-90
2021/03/18 11:06:49;;;;;;;43.13;24.13;;;;;;;4.26;97.10;101423.75;5232292;28;20532;-89
2021/03/18 11:09:20;;;;;;;36.97;22.42;;;;;;;4.38;97.98;101418.59;5227903;28;20020;-90
2021/03/18 11:11:58;;;;;;;47.65;26.30;;;;;;;4.46;97.42;101417.75;5245236;28;20024;-88
2021/03/18 11:14:30;;;;;;;45.95;29.42;;;;;;;4.21;98.14;101420.28;5224359;28;20021;-90
2021/03/18 11:17:07;;;;;;;52.17;31.35;;;;;;;4.05;98.61;101408.16;5225609;28;20035;-90
2021/03/18 11:19:37;;;;;;;51.30;33.15;;;;;;;4.11;99.21;101411.63;5226899;28;20025;-90
2021/03/18 11:22:08;;;;;;;55.05;35.22;;;;;;;4.20;99.05;101409.09;5226871;28;20543;-90
2021/03/18 11:24:38;;;;;;;53.25;35.08;;;;;;;4.37;97.65;101402.22;5227446;28;20059;-88
2021/03/18 11:27:09;;;;;;;55.38;35.67;;;;;;;4.48;97.98;101395.34;5228785;28;20024;-89
2021/03/18 11:29:43;;;;;;;63.20;37.28;;;;;;;4.35;98.06;101397.91;5245756;28;20725;-88
2021/03/18 11:32:22;;;;;;;57.08;36.10;;;;;;;4.31;97.12;101394.44;5244981;28;20108;-90
2021/03/18 11:34:58;;;;;;;51.03;33.08;;;;;;;4.36;97.33;101390.16;5227028;28;20039;-89
2021/03/18 11:37:28;;;;;;;55.47;34.00;;;;;;;4.14;97.27;101390.09;5228425;28;20644;-90
2021/03/18 11:39:59;;;;;;;49.72;33.42;;;;;;;4.14;96.51;101383.19;5230325;28;20074;-91
2021/03/18 11:42:29;;;;;;;53.45;32.20;;;;;;;4.18;97.83;101382.34;5228115;28;20481;-90
2021/03/18 11:44:59;;;;;;;52.90;33.80;;;;;;;4.45;98.35;101377.22;5228430;28;20036;-91